sensor_id;sensor_type;location;lat;lon;timestamp;pressure;altitude;pressure_sealevel;temperature;humidity
43486;BME280;30447;48.742;8.972;2022-12-18T00:01:25;97782.91;;;-13.99;70.50
43486;BME280;30447;48.742;8.972;2022-12-18T00:03:55;97771.44;;;-13.89;69.61
43486;BME280;30447;48.742;8.972;2022-12-18T00:06:26;97774.59;;;-14.06;69.95
43486;BME280;30447;48.742;8.972;2022-12-18T00:08:56;97773.69;;;-14.30;70.14
43486;BME280;30447;48.742;8.972;2022-12-18T00:11:26;97767.06;;;-14.23;70.38
43486;BME280;30447;48.742;8.972;2022-12-18T00:13:57;97768.69;;;-14.00;70.49
43486;BME280;30447;48.742;8.972;2022-12-18T00:16:26;97772.50;;;-13.71;70.44
43486;BME280;30447;48.742;8.972;2022-12-18T00:18:56;97774.87;;;-13.96;70.36
43486;BME280;30447;48.742;8.972;2022-12-18T00:21:23;97769.28;;;-14.10;70.55
43486;BME280;30447;48.742;8.972;2022-12-18T00:23:50;97771.06;;;-13.85;70.25
43486;BME280;30447;48.742;8.972;2022-12-18T00:26:24;97759.38;;;-14.17;70.49
43486;BME280;30447;48.742;8.972;2022-12-18T00:28:53;97769.88;;;-13.96;70.75
43486;BME280;30447;48.742;8.972;2022-12-18T00:31:24;97774.16;;;-13.95;71.54
43486;BME280;30447;48.742;8.972;2022-12-18T00:33:54;97779.12;;;-14.18;71.49
43486;BME280;30447;48.742;8.972;2022-12-18T00:36:27;97778.25;;;-14.19;71.48
43486;BME280;30447;48.742;8.972;2022-12-18T00:38:58;97778.56;;;-13.92;71.19
43486;BME280;30447;48.742;8.972;2022-12-18T00:41:26;97775.41;;;-13.75;70.38
43486;BME280;30447;48.742;8.972;2022-12-18T00:44:15;97780.16;;;-13.70;70.51
43486;BME280;30447;48.742;8.972;2022-12-18T00:46:44;97778.56;;;-13.92;70.52
43486;BME280;30447;48.742;8.972;2022-12-18T00:49:12;97782.72;;;-13.77;71.03
43486;BME280;30447;48.742;8.972;2022-12-18T00:51:40;97782.22;;;-13.82;70.82
43486;BME280;30447;48.742;8.972;2022-12-18T00:54:07;97776.63;;;-13.07;70.14
43486;BME280;30447;48.742;8.972;2022-12-18T00:56:36;97772.19;;;-13.26;70.12
43486;BME280;30447;48.742;8.972;2022-12-18T00:59:05;97789.75;;;-13.49;71.48
43486;BME280;30447;48.742;8.972;2022-12-18T01:01:32;97787.72;;;-13.61;70.83
43486;BME280;30447;48.742;8.972;2022-12-18T01:04:00;97787.53;;;-14.02;70.13
43486;BME280;30447;48.742;8.972;2022-12-18T01:06:28;97778.84;;;-14.29;69.65
43486;BME280;30447;48.742;8.972;2022-12-18T01:08:55;97777.03;;;-14.23;69.82
43486;BME280;30447;48.742;8.972;2022-12-18T01:11:22;97778.56;;;-14.39;70.12
43486;BME280;30447;48.742;8.972;2022-12-18T01:13:49;97775.91;;;-14.17;70.08
43486;BME280;30447;48.742;8.972;2022-12-18T01:16:16;97781.28;;;-13.98;69.92
43486;BME280;30447;48.742;8.972;2022-12-18T01:18:44;97789.56;;;-14.06;70.25
43486;BME280;30447;48.742;8.972;2022-12-18T01:21:14;97779.47;;;-13.92;70.53
43486;BME280;30447;48.742;8.972;2022-12-18T01:23:42;97781.94;;;-14.39;70.36
43486;BME280;30447;48.742;8.972;2022-12-18T01:26:11;97785.31;;;-14.69;70.19
43486;BME280;30447;48.742;8.972;2022-12-18T01:28:40;97776.00;;;-14.79;70.31
43486;BME280;30447;48.742;8.972;2022-12-18T01:31:16;97766.16;;;-14.46;69.67
43486;BME280;30447;48.742;8.972;2022-12-18T01:33:46;97774.03;;;-13.80;69.35
43486;BME280;30447;48.742;8.972;2022-12-18T01:36:39;97777.03;;;-14.23;67.61
43486;BME280;30447;48.742;8.972;2022-12-18T01:39:12;97787.78;;;-14.62;68.56
43486;BME280;30447;48.742;8.972;2022-12-18T01:41:41;97788.63;;;-14.77;69.71
43486;BME280;30447;48.742;8.972;2022-12-18T01:45:22;97795.19;;;-14.54;69.68
43486;BME280;30447;48.742;8.972;2022-12-18T01:48:00;97793.25;;;-14.26;69.76
43486;BME280;30447;48.742;8.972;2022-12-18T01:50:33;97784.16;;;-14.26;69.97
43486;BME280;30447;48.742;8.972;2022-12-18T01:53:10;97778.69;;;-14.61;70.12
43486;BME280;30447;48.742;8.972;2022-12-18T01:55:49;97769.16;;;-14.42;70.04
43486;BME280;30447;48.742;8.972;2022-12-18T01:58:23;97769.34;;;-14.40;70.12
43486;BME280;30447;48.742;8.972;2022-12-18T02:00:59;97761.72;;;-14.49;71.08
43486;BME280;30447;48.742;8.972;2022-12-18T02:03:26;97777.59;;;-14.25;72.00
43486;BME280;30447;48.742;8.972;2022-12-18T02:05:56;97784.88;;;-13.80;71.80
43486;BME280;30447;48.742;8.972;2022-12-18T02:08:50;97790.34;;;-13.75;71.04
43486;BME280;30447;48.742;8.972;2022-12-18T02:11:36;97788.19;;;-13.96;71.18
43486;BME280;30447;48.742;8.972;2022-12-18T02:14:49;97771.62;;;-13.07;70.84
43486;BME280;30447;48.742;8.972;2022-12-18T02:17:42;97775.50;;;-13.50;70.38
43486;BME280;30447;48.742;8.972;2022-12-18T02:20:52;97782.06;;;-13.83;71.84
43486;BME280;30447;48.742;8.972;2022-12-18T02:26:43;97784.72;;;-13.65;72.11
43486;BME280;30447;48.742;8.972;2022-12-18T02:29:25;97780.72;;;-13.56;72.33
43486;BME280;30447;48.742;8.972;2022-12-18T02:31:59;97790.28;;;-13.04;72.12
43486;BME280;30447;48.742;8.972;2022-12-18T02:34:32;97796.09;;;-13.28;71.80
43486;BME280;30447;48.742;8.972;2022-12-18T02:37:09;97796.50;;;-13.32;71.57
43486;BME280;30447;48.742;8.972;2022-12-18T02:39:42;97789.66;;;-13.26;72.84
43486;BME280;30447;48.742;8.972;2022-12-18T02:42:11;97797.94;;;-13.34;72.48
43486;BME280;30447;48.742;8.972;2022-12-18T02:44:44;97796.72;;;-13.38;72.36
43486;BME280;30447;48.742;8.972;2022-12-18T02:47:15;97787.41;;;-13.48;71.40
43486;BME280;30447;48.742;8.972;2022-12-18T02:52:55;97810.28;;;-13.20;73.46
43486;BME280;30447;48.742;8.972;2022-12-18T02:58:41;97799.78;;;-12.76;76.89
43486;BME280;30447;48.742;8.972;2022-12-18T03:01:24;97801.16;;;-12.21;78.48
43486;BME280;30447;48.742;8.972;2022-12-18T03:04:24;97796.25;;;-12.03;79.27
43486;BME280;30447;48.742;8.972;2022-12-18T03:06:58;97804.66;;;-11.94;79.71
43486;BME280;30447;48.742;8.972;2022-12-18T03:09:37;97806.13;;;-11.87;80.64
43486;BME280;30447;48.742;8.972;2022-12-18T03:12:28;97812.19;;;-11.43;80.52
43486;BME280;30447;48.742;8.972;2022-12-18T03:15:11;97813.84;;;-11.43;80.25
43486;BME280;30447;48.742;8.972;2022-12-18T03:17:53;97822.28;;;-11.16;80.39
43486;BME280;30447;48.742;8.972;2022-12-18T03:20:29;97816.09;;;-11.20;80.56
43486;BME280;30447;48.742;8.972;2022-12-18T03:23:07;97812.16;;;-11.09;80.15
43486;BME280;30447;48.742;8.972;2022-12-18T03:25:41;97813.63;;;-10.84;79.62
43486;BME280;30447;48.742;8.972;2022-12-18T03:28:16;97815.97;;;-11.04;79.44
43486;BME280;30447;48.742;8.972;2022-12-18T03:30:51;97810.22;;;-11.11;78.53
43486;BME280;30447;48.742;8.972;2022-12-18T03:33:54;97804.75;;;-11.07;78.77
43486;BME280;30447;48.742;8.972;2022-12-18T03:36:24;97809.78;;;-10.72;79.90
43486;BME280;30447;48.742;8.972;2022-12-18T03:38:51;97819.97;;;-10.70;82.92
43486;BME280;30447;48.742;8.972;2022-12-18T03:41:37;97811.53;;;-10.44;84.72
43486;BME280;30447;48.742;8.972;2022-12-18T03:50:45;97826.16;;;-9.86;87.21
43486;BME280;30447;48.742;8.972;2022-12-18T03:53:36;97821.94;;;-10.04;87.95
43486;BME280;30447;48.742;8.972;2022-12-18T03:56:14;97809.31;;;-9.87;87.60
43486;BME280;30447;48.742;8.972;2022-12-18T03:58:44;97808.69;;;-9.66;86.76
43486;BME280;30447;48.742;8.972;2022-12-18T04:01:16;97807.47;;;-9.61;87.90
43486;BME280;30447;48.742;8.972;2022-12-18T04:03:49;97799.38;;;-9.67;87.40
43486;BME280;30447;48.742;8.972;2022-12-18T04:06:18;97813.44;;;-9.78;89.47
43486;BME280;30447;48.742;8.972;2022-12-18T04:08:47;97805.66;;;-9.53;88.45
43486;BME280;30447;48.742;8.972;2022-12-18T04:11:15;97802.25;;;-9.54;87.61
43486;BME280;30447;48.742;8.972;2022-12-18T04:13:42;97794.44;;;-9.29;87.81
43486;BME280;30447;48.742;8.972;2022-12-18T04:16:09;97802.59;;;-8.84;85.15
43486;BME280;30447;48.742;8.972;2022-12-18T04:18:36;97807.91;;;-9.00;85.66
43486;BME280;30447;48.742;8.972;2022-12-18T04:21:03;97812.38;;;-9.35;87.01
43486;BME280;30447;48.742;8.972;2022-12-18T04:23:30;97817.09;;;-9.38;88.25
43486;BME280;30447;48.742;8.972;2022-12-18T04:25:57;97813.34;;;-9.52;88.80
43486;BME280;30447;48.742;8.972;2022-12-18T04:28:23;97820.00;;;-9.24;88.91
43486;BME280;30447;48.742;8.972;2022-12-18T04:30:50;97824.28;;;-8.95;88.11
43486;BME280;30447;48.742;8.972;2022-12-18T04:33:17;97817.03;;;-9.20;88.27
43486;BME280;30447;48.742;8.972;2022-12-18T04:35:44;97814.69;;;-8.80;88.69
43486;BME280;30447;48.742;8.972;2022-12-18T04:38:11;97817.34;;;-8.79;87.61
43486;BME280;30447;48.742;8.972;2022-12-18T04:40:38;97816.84;;;-8.94;88.21
43486;BME280;30447;48.742;8.972;2022-12-18T04:43:05;97808.16;;;-8.97;88.72
43486;BME280;30447;48.742;8.972;2022-12-18T04:45:32;97800.47;;;-9.18;90.40
43486;BME280;30447;48.742;8.972;2022-12-18T04:48:00;97805.13;;;-8.65;88.49
43486;BME280;30447;48.742;8.972;2022-12-18T04:50:29;97794.72;;;-8.79;88.63
43486;BME280;30447;48.742;8.972;2022-12-18T04:52:57;97791.53;;;-8.86;89.27
43486;BME280;30447;48.742;8.972;2022-12-18T04:55:25;97787.88;;;-8.90;89.96
43486;BME280;30447;48.742;8.972;2022-12-18T04:57:52;97787.12;;;-8.89;89.66
43486;BME280;30447;48.742;8.972;2022-12-18T05:00:19;97791.69;;;-8.85;90.05
43486;BME280;30447;48.742;8.972;2022-12-18T05:02:46;97787.53;;;-8.36;88.93
43486;BME280;30447;48.742;8.972;2022-12-18T05:05:13;97787.12;;;-8.11;87.93
43486;BME280;30447;48.742;8.972;2022-12-18T05:07:39;97794.69;;;-8.11;88.61
43486;BME280;30447;48.742;8.972;2022-12-18T05:10:06;97796.41;;;-7.90;87.69
43486;BME280;30447;48.742;8.972;2022-12-18T05:12:34;97800.16;;;-7.95;87.49
43486;BME280;30447;48.742;8.972;2022-12-18T05:15:20;97799.81;;;-8.19;89.35
43486;BME280;30447;48.742;8.972;2022-12-18T05:17:47;97803.41;;;-8.26;90.11
43486;BME280;30447;48.742;8.972;2022-12-18T05:20:13;97797.44;;;-8.18;90.73
43486;BME280;30447;48.742;8.972;2022-12-18T05:22:40;97808.16;;;-8.10;90.26
43486;BME280;30447;48.742;8.972;2022-12-18T05:25:07;97811.00;;;-8.16;90.21
43486;BME280;30447;48.742;8.972;2022-12-18T05:27:34;97804.34;;;-8.15;90.96
43486;BME280;30447;48.742;8.972;2022-12-18T05:30:00;97809.62;;;-8.12;90.82
43486;BME280;30447;48.742;8.972;2022-12-18T05:32:27;97816.19;;;-8.14;90.47
43486;BME280;30447;48.742;8.972;2022-12-18T05:34:54;97816.13;;;-8.25;91.47
43486;BME280;30447;48.742;8.972;2022-12-18T05:37:20;97823.72;;;-8.14;91.58
43486;BME280;30447;48.742;8.972;2022-12-18T05:39:47;97817.19;;;-8.12;90.98
43486;BME280;30447;48.742;8.972;2022-12-18T05:42:13;97812.06;;;-8.03;90.84
43486;BME280;30447;48.742;8.972;2022-12-18T05:44:40;97803.84;;;-8.11;90.63
43486;BME280;30447;48.742;8.972;2022-12-18T05:47:07;97801.31;;;-8.11;90.16
43486;BME280;30447;48.742;8.972;2022-12-18T05:49:33;97799.13;;;-8.27;88.90
43486;BME280;30447;48.742;8.972;2022-12-18T05:52:00;97795.50;;;-8.50;87.70
43486;BME280;30447;48.742;8.972;2022-12-18T05:54:27;97800.31;;;-8.43;86.43
43486;BME280;30447;48.742;8.972;2022-12-18T05:56:54;97797.28;;;-8.19;85.65
43486;BME280;30447;48.742;8.972;2022-12-18T05:59:21;97804.91;;;-8.28;83.51
43486;BME280;30447;48.742;8.972;2022-12-18T06:01:47;97808.97;;;-8.88;85.01
43486;BME280;30447;48.742;8.972;2022-12-18T06:04:14;97808.59;;;-8.73;84.92
43486;BME280;30447;48.742;8.972;2022-12-18T06:06:41;97803.16;;;-8.59;86.61
43486;BME280;30447;48.742;8.972;2022-12-18T06:09:07;97808.44;;;-8.26;87.30
43486;BME280;30447;48.742;8.972;2022-12-18T06:11:37;97809.81;;;-8.30;87.29
43486;BME280;30447;48.742;8.972;2022-12-18T06:14:05;97825.19;;;-8.46;89.76
43486;BME280;30447;48.742;8.972;2022-12-18T06:16:32;97825.72;;;-8.69;88.60
43486;BME280;30447;48.742;8.972;2022-12-18T06:19:02;97826.91;;;-8.55;85.33
43486;BME280;30447;48.742;8.972;2022-12-18T06:21:31;97816.44;;;-9.26;80.52
43486;BME280;30447;48.742;8.972;2022-12-18T06:24:00;97823.66;;;-9.94;77.08
43486;BME280;30447;48.742;8.972;2022-12-18T06:26:26;97822.53;;;-10.25;75.57
43486;BME280;30447;48.742;8.972;2022-12-18T06:28:53;97827.19;;;-10.65;75.28
43486;BME280;30447;48.742;8.972;2022-12-18T06:31:20;97832.19;;;-11.00;74.90
43486;BME280;30447;48.742;8.972;2022-12-18T06:33:46;97833.44;;;-11.30;74.02
43486;BME280;30447;48.742;8.972;2022-12-18T06:36:13;97828.13;;;-11.24;74.72
43486;BME280;30447;48.742;8.972;2022-12-18T06:38:42;97831.69;;;-11.31;75.89
43486;BME280;30447;48.742;8.972;2022-12-18T06:41:15;97823.81;;;-10.92;76.64
43486;BME280;30447;48.742;8.972;2022-12-18T06:43:45;97818.47;;;-10.77;76.84
43486;BME280;30447;48.742;8.972;2022-12-18T06:46:12;97822.00;;;-11.02;76.43
43486;BME280;30447;48.742;8.972;2022-12-18T06:48:39;97828.53;;;-11.37;75.37
43486;BME280;30447;48.742;8.972;2022-12-18T06:51:06;97831.44;;;-11.93;74.52
43486;BME280;30447;48.742;8.972;2022-12-18T06:53:33;97837.06;;;-12.20;74.13
43486;BME280;30447;48.742;8.972;2022-12-18T06:56:05;97844.78;;;-12.26;74.07
43486;BME280;30447;48.742;8.972;2022-12-18T06:58:33;97843.75;;;-12.03;73.32
43486;BME280;30447;48.742;8.972;2022-12-18T07:01:01;97849.75;;;-12.10;72.54
43486;BME280;30447;48.742;8.972;2022-12-18T07:03:32;97856.09;;;-12.05;73.42
43486;BME280;30447;48.742;8.972;2022-12-18T07:05:59;97860.53;;;-12.27;72.81
43486;BME280;30447;48.742;8.972;2022-12-18T07:08:26;97862.25;;;-12.10;73.48
43486;BME280;30447;48.742;8.972;2022-12-18T07:10:52;97870.75;;;-12.33;73.76
43486;BME280;30447;48.742;8.972;2022-12-18T07:13:20;97860.72;;;-12.42;74.82
43486;BME280;30447;48.742;8.972;2022-12-18T07:15:46;97860.03;;;-12.57;74.75
43486;BME280;30447;48.742;8.972;2022-12-18T07:18:13;97851.47;;;-12.75;74.70
43486;BME280;30447;48.742;8.972;2022-12-18T07:20:40;97855.75;;;-12.17;75.14
43486;BME280;30447;48.742;8.972;2022-12-18T07:23:06;97861.25;;;-12.28;74.78
43486;BME280;30447;48.742;8.972;2022-12-18T07:25:38;97864.56;;;-11.87;75.04
43486;BME280;30447;48.742;8.972;2022-12-18T07:28:05;97867.03;;;-11.96;74.83
43486;BME280;30447;48.742;8.972;2022-12-18T07:30:32;97865.72;;;-11.92;75.21
43486;BME280;30447;48.742;8.972;2022-12-18T07:32:58;97870.16;;;-12.14;75.57
43486;BME280;30447;48.742;8.972;2022-12-18T07:35:25;97864.44;;;-12.13;74.86
43486;BME280;30447;48.742;8.972;2022-12-18T07:37:52;97867.41;;;-12.09;74.20
43486;BME280;30447;48.742;8.972;2022-12-18T07:40:18;97863.78;;;-12.44;74.30
43486;BME280;30447;48.742;8.972;2022-12-18T07:42:45;97865.97;;;-12.23;74.27
43486;BME280;30447;48.742;8.972;2022-12-18T07:45:11;97860.88;;;-11.90;74.41
43486;BME280;30447;48.742;8.972;2022-12-18T07:47:38;97866.84;;;-12.06;75.16
43486;BME280;30447;48.742;8.972;2022-12-18T07:50:07;97874.25;;;-12.15;75.89
43486;BME280;30447;48.742;8.972;2022-12-18T07:52:34;97872.84;;;-12.29;75.35
43486;BME280;30447;48.742;8.972;2022-12-18T07:55:00;97867.59;;;-12.64;74.12
43486;BME280;30447;48.742;8.972;2022-12-18T07:57:28;97879.84;;;-12.17;73.44
43486;BME280;30447;48.742;8.972;2022-12-18T07:59:55;97873.72;;;-12.53;72.76
43486;BME280;30447;48.742;8.972;2022-12-18T08:02:21;97887.34;;;-12.58;73.53
43486;BME280;30447;48.742;8.972;2022-12-18T08:04:48;97880.63;;;-12.51;73.30
43486;BME280;30447;48.742;8.972;2022-12-18T08:07:14;97881.53;;;-12.66;72.80
43486;BME280;30447;48.742;8.972;2022-12-18T08:09:41;97874.13;;;-12.16;73.37
43486;BME280;30447;48.742;8.972;2022-12-18T08:12:08;97882.56;;;-12.32;73.82
43486;BME280;30447;48.742;8.972;2022-12-18T08:14:34;97883.09;;;-11.85;74.67
43486;BME280;30447;48.742;8.972;2022-12-18T08:17:01;97880.75;;;-11.83;73.94
43486;BME280;30447;48.742;8.972;2022-12-18T08:19:28;97879.50;;;-12.04;74.78
43486;BME280;30447;48.742;8.972;2022-12-18T08:21:54;97876.16;;;-12.21;73.71
43486;BME280;30447;48.742;8.972;2022-12-18T08:24:21;97879.34;;;-12.06;73.69
43486;BME280;30447;48.742;8.972;2022-12-18T08:26:47;97877.75;;;-11.72;73.53
43486;BME280;30447;48.742;8.972;2022-12-18T08:29:14;97875.72;;;-11.58;74.06
43486;BME280;30447;48.742;8.972;2022-12-18T08:31:41;97882.87;;;-11.70;74.02
43486;BME280;30447;48.742;8.972;2022-12-18T08:34:08;97884.34;;;-11.72;75.92
43486;BME280;30447;48.742;8.972;2022-12-18T08:36:34;97881.72;;;-11.65;77.25
43486;BME280;30447;48.742;8.972;2022-12-18T08:39:01;97888.16;;;-11.42;77.21
43486;BME280;30447;48.742;8.972;2022-12-18T08:41:28;97886.28;;;-11.27;77.63
43486;BME280;30447;48.742;8.972;2022-12-18T08:43:55;97884.13;;;-11.15;77.97
43486;BME280;30447;48.742;8.972;2022-12-18T08:46:42;97880.94;;;-10.96;77.87
43486;BME280;30447;48.742;8.972;2022-12-18T08:49:11;97887.88;;;-10.85;77.66
43486;BME280;30447;48.742;8.972;2022-12-18T08:51:38;97878.91;;;-10.74;78.06
43486;BME280;30447;48.742;8.972;2022-12-18T08:54:06;97873.47;;;-10.70;77.82
43486;BME280;30447;48.742;8.972;2022-12-18T08:56:33;97864.63;;;-10.75;78.87
43486;BME280;30447;48.742;8.972;2022-12-18T08:59:00;97860.50;;;-10.57;78.99
43486;BME280;30447;48.742;8.972;2022-12-18T09:01:27;97869.94;;;-10.54;79.31
43486;BME280;30447;48.742;8.972;2022-12-18T09:03:54;97874.97;;;-10.54;80.16
43486;BME280;30447;48.742;8.972;2022-12-18T09:06:23;97864.16;;;-10.27;79.68
43486;BME280;30447;48.742;8.972;2022-12-18T09:08:50;97876.06;;;-9.98;79.30
43486;BME280;30447;48.742;8.972;2022-12-18T09:11:22;97867.91;;;-9.77;79.99
43486;BME280;30447;48.742;8.972;2022-12-18T09:13:52;97861.78;;;-9.62;80.11
43486;BME280;30447;48.742;8.972;2022-12-18T09:16:21;97861.19;;;-9.50;79.62
43486;BME280;30447;48.742;8.972;2022-12-18T09:18:48;97857.28;;;-9.38;79.26
43486;BME280;30447;48.742;8.972;2022-12-18T09:21:18;97849.09;;;-8.98;79.85
43486;BME280;30447;48.742;8.972;2022-12-18T09:23:53;97851.16;;;-8.94;79.81
43486;BME280;30447;48.742;8.972;2022-12-18T09:26:22;97846.78;;;-9.06;79.55
43486;BME280;30447;48.742;8.972;2022-12-18T09:28:50;97848.94;;;-8.72;80.10
43486;BME280;30447;48.742;8.972;2022-12-18T09:31:20;97850.94;;;-8.48;80.71
43486;BME280;30447;48.742;8.972;2022-12-18T09:33:48;97843.00;;;-8.34;82.41
43486;BME280;30447;48.742;8.972;2022-12-18T09:36:16;97848.94;;;-8.53;83.55
43486;BME280;30447;48.742;8.972;2022-12-18T09:38:45;97846.66;;;-8.01;83.74
43486;BME280;30447;48.742;8.972;2022-12-18T09:44:24;97850.66;;;-7.44;85.37
43486;BME280;30447;48.742;8.972;2022-12-18T09:47:25;97846.28;;;-7.05;85.71
43486;BME280;30447;48.742;8.972;2022-12-18T09:50:02;97850.06;;;-6.79;85.92
43486;BME280;30447;48.742;8.972;2022-12-18T09:52:44;97847.66;;;-6.56;86.23
43486;BME280;30447;48.742;8.972;2022-12-18T09:55:26;97845.53;;;-6.52;86.64
43486;BME280;30447;48.742;8.972;2022-12-18T09:58:03;97843.19;;;-6.28;86.43
43486;BME280;30447;48.742;8.972;2022-12-18T10:00:53;97850.63;;;-5.86;84.34
43486;BME280;30447;48.742;8.972;2022-12-18T10:03:20;97852.28;;;-5.87;85.26
43486;BME280;30447;48.742;8.972;2022-12-18T10:11:43;97850.69;;;-5.41;84.21
43486;BME280;30447;48.742;8.972;2022-12-18T10:14:27;97855.31;;;-5.36;84.00
43486;BME280;30447;48.742;8.972;2022-12-18T10:20:02;97837.03;;;-5.21;84.83
43486;BME280;30447;48.742;8.972;2022-12-18T10:26:22;97854.25;;;-5.27;84.01
43486;BME280;30447;48.742;8.972;2022-12-18T10:28:43;97856.34;;;-5.34;85.70
43486;BME280;30447;48.742;8.972;2022-12-18T10:31:18;97860.28;;;-5.03;84.57
43486;BME280;30447;48.742;8.972;2022-12-18T10:33:47;97849.38;;;-5.14;85.08
43486;BME280;30447;48.742;8.972;2022-12-18T10:36:14;97846.78;;;-4.69;83.81
43486;BME280;30447;48.742;8.972;2022-12-18T10:38:41;97847.56;;;-4.46;82.69
43486;BME280;30447;48.742;8.972;2022-12-18T10:43:44;97847.91;;;-4.54;82.25
43486;BME280;30447;48.742;8.972;2022-12-18T10:46:12;97849.06;;;-4.72;83.70
43486;BME280;30447;48.742;8.972;2022-12-18T10:48:55;97846.47;;;-4.50;83.64
43486;BME280;30447;48.742;8.972;2022-12-18T10:51:24;97855.91;;;-4.59;83.34
43486;BME280;30447;48.742;8.972;2022-12-18T10:54:00;97847.47;;;-4.48;83.68
43486;BME280;30447;48.742;8.972;2022-12-18T10:56:30;97850.78;;;-4.37;83.32
43486;BME280;30447;48.742;8.972;2022-12-18T10:59:08;97842.66;;;-4.21;82.04
43486;BME280;30447;48.742;8.972;2022-12-18T11:01:57;97839.25;;;-4.09;82.32
43486;BME280;30447;48.742;8.972;2022-12-18T11:04:29;97840.34;;;-4.06;82.76
43486;BME280;30447;48.742;8.972;2022-12-18T11:07:05;97837.91;;;-3.92;82.22
43486;BME280;30447;48.742;8.972;2022-12-18T11:09:39;97827.78;;;-3.92;82.31
43486;BME280;30447;48.742;8.972;2022-12-18T11:12:18;94132.87;;;-3.70;100.00
43486;BME280;30447;48.742;8.972;2022-12-18T11:14:52;52078.37;;;-147.61;100.00
43486;BME280;30447;48.742;8.972;2022-12-18T11:17:29;52078.37;;;-147.61;100.00
43486;BME280;30447;48.742;8.972;2022-12-18T11:20:00;52078.37;;;-147.61;100.00
43486;BME280;30447;48.742;8.972;2022-12-18T11:22:36;52078.37;;;-147.61;100.00
43486;BME280;30447;48.742;8.972;2022-12-18T11:25:17;52078.37;;;-147.61;100.00
43486;BME280;30447;48.742;8.972;2022-12-18T11:27:52;52078.37;;;-147.61;100.00
43486;BME280;30447;48.742;8.972;2022-12-18T11:30:28;52078.37;;;-147.61;100.00
43486;BME280;30447;48.742;8.972;2022-12-18T11:35:50;52078.37;;;-147.61;100.00
43486;BME280;30447;48.742;8.972;2022-12-18T11:38:27;52078.37;;;-147.61;100.00
43486;BME280;30447;48.742;8.972;2022-12-18T11:41:03;52078.37;;;-147.61;100.00
43486;BME280;30447;48.742;8.972;2022-12-18T11:43:50;52078.37;;;-147.61;100.00
43486;BME280;30447;48.742;8.972;2022-12-18T11:46:36;52078.37;;;-147.61;100.00
43486;BME280;30447;48.742;8.972;2022-12-18T11:49:15;52078.37;;;-147.61;100.00
43486;BME280;30447;48.742;8.972;2022-12-18T11:51:57;52078.37;;;-147.61;100.00
43486;BME280;30447;48.742;8.972;2022-12-18T11:54:28;52078.37;;;-147.61;100.00
43486;BME280;30447;48.742;8.972;2022-12-18T11:57:09;52078.37;;;-147.61;100.00
43486;BME280;30447;48.742;8.972;2022-12-18T12:00:11;52078.37;;;-147.61;100.00
43486;BME280;30447;48.742;8.972;2022-12-18T12:14:35;52078.37;;;-147.61;100.00
43486;BME280;30447;48.742;8.972;2022-12-18T12:17:54;52078.37;;;-147.61;100.00
43486;BME280;30447;48.742;8.972;2022-12-18T12:21:01;52078.37;;;-147.61;100.00
43486;BME280;30447;48.742;8.972;2022-12-18T12:23:35;52078.37;;;-147.61;100.00
43486;BME280;30447;48.742;8.972;2022-12-18T12:26:30;52078.37;;;-147.61;100.00
43486;BME280;30447;48.742;8.972;2022-12-18T12:29:22;52078.37;;;-147.61;100.00
43486;BME280;30447;48.742;8.972;2022-12-18T12:38:57;52078.37;;;-147.61;100.00
43486;BME280;30447;48.742;8.972;2022-12-18T12:41:34;52078.37;;;-147.61;100.00
43486;BME280;30447;48.742;8.972;2022-12-18T12:44:33;52078.37;;;-147.61;100.00
43486;BME280;30447;48.742;8.972;2022-12-18T12:47:23;52078.37;;;-147.61;100.00
43486;BME280;30447;48.742;8.972;2022-12-18T12:50:16;52078.37;;;-147.61;100.00
43486;BME280;30447;48.742;8.972;2022-12-18T12:52:51;52078.37;;;-147.61;100.00
43486;BME280;30447;48.742;8.972;2022-12-18T12:55:26;52078.37;;;-147.61;100.00
43486;BME280;30447;48.742;8.972;2022-12-18T12:58:38;52078.37;;;-147.61;100.00
43486;BME280;30447;48.742;8.972;2022-12-18T13:01:16;52078.37;;;-147.61;100.00
43486;BME280;30447;48.742;8.972;2022-12-18T13:06:51;52078.37;;;-147.61;100.00
43486;BME280;30447;48.742;8.972;2022-12-18T13:09:24;52078.37;;;-147.61;100.00
43486;BME280;30447;48.742;8.972;2022-12-18T13:11:51;52078.37;;;-147.61;100.00
43486;BME280;30447;48.742;8.972;2022-12-18T13:14:39;52078.37;;;-147.61;100.00
43486;BME280;30447;48.742;8.972;2022-12-18T13:19:51;52078.37;;;-147.61;100.00
43486;BME280;30447;48.742;8.972;2022-12-18T13:22:35;52078.37;;;-147.61;100.00
43486;BME280;30447;48.742;8.972;2022-12-18T13:25:32;52078.37;;;-147.61;100.00
43486;BME280;30447;48.742;8.972;2022-12-18T13:34:21;52078.37;;;-147.61;100.00
43486;BME280;30447;48.742;8.972;2022-12-18T13:36:53;52078.37;;;-147.61;100.00
43486;BME280;30447;48.742;8.972;2022-12-18T13:39:24;52078.37;;;-147.61;100.00
43486;BME280;30447;48.742;8.972;2022-12-18T13:44:38;52078.37;;;-147.61;100.00
43486;BME280;30447;48.742;8.972;2022-12-18T13:50:00;52078.37;;;-147.61;100.00
43486;BME280;30447;48.742;8.972;2022-12-18T13:52:38;52078.37;;;-147.61;100.00
43486;BME280;30447;48.742;8.972;2022-12-18T13:55:16;52078.37;;;-147.61;100.00
43486;BME280;30447;48.742;8.972;2022-12-18T13:57:45;52078.37;;;-147.61;100.00
43486;BME280;30447;48.742;8.972;2022-12-18T14:02:50;52078.37;;;-147.61;100.00
43486;BME280;30447;48.742;8.972;2022-12-18T14:05:29;52078.37;;;-147.61;100.00
43486;BME280;30447;48.742;8.972;2022-12-18T14:08:06;52078.37;;;-147.61;100.00
43486;BME280;30447;48.742;8.972;2022-12-18T14:10:41;52078.37;;;-147.61;100.00
43486;BME280;30447;48.742;8.972;2022-12-18T14:13:17;52078.37;;;-147.61;100.00
43486;BME280;30447;48.742;8.972;2022-12-18T14:15:59;52078.37;;;-147.61;100.00
43486;BME280;30447;48.742;8.972;2022-12-18T14:20:59;52078.37;;;-147.61;100.00
43486;BME280;30447;48.742;8.972;2022-12-18T14:28:56;52078.37;;;-147.61;100.00
43486;BME280;30447;48.742;8.972;2022-12-18T14:31:26;52078.37;;;-147.61;100.00
43486;BME280;30447;48.742;8.972;2022-12-18T14:33:54;52078.37;;;-147.61;100.00
43486;BME280;30447;48.742;8.972;2022-12-18T14:36:28;52078.37;;;-147.61;100.00
43486;BME280;30447;48.742;8.972;2022-12-18T14:38:58;52078.37;;;-147.61;100.00
43486;BME280;30447;48.742;8.972;2022-12-18T14:41:26;52078.37;;;-147.61;100.00
43486;BME280;30447;48.742;8.972;2022-12-18T14:43:54;52078.37;;;-147.61;100.00